sensor_id;sensor_type;location;lat;lon;timestamp;P1;durP1;ratioP1;P2;durP2;ratioP2
31424;SDS011;18054;51.572;7.372;2022-11-15T00:04:28;18.13;;;7.93;;
31424;SDS011;18054;51.572;7.372;2022-11-15T00:07:14;14.05;;;8.10;;
31424;SDS011;18054;51.572;7.372;2022-11-15T00:10:20;17.10;;;8.15;;
31424;SDS011;18054;51.572;7.372;2022-11-15T00:13:06;16.77;;;7.95;;
31424;SDS011;18054;51.572;7.372;2022-11-15T00:15:56;17.00;;;9.05;;
31424;SDS011;18054;51.572;7.372;2022-11-15T00:18:42;16.63;;;8.15;;
31424;SDS011;18054;51.572;7.372;2022-11-15T00:21:34;17.23;;;7.80;;
31424;SDS011;18054;51.572;7.372;2022-11-15T00:24:21;20.63;;;8.32;;
31424;SDS011;18054;51.572;7.372;2022-11-15T00:27:07;13.57;;;8.00;;
31424;SDS011;18054;51.572;7.372;2022-11-15T00:29:53;22.27;;;8.32;;
31424;SDS011;18054;51.572;7.372;2022-11-15T00:32:40;15.20;;;8.15;;
31424;SDS011;18054;51.572;7.372;2022-11-15T00:35:26;13.95;;;7.78;;
31424;SDS011;18054;51.572;7.372;2022-11-15T00:38:12;17.67;;;7.93;;
31424;SDS011;18054;51.572;7.372;2022-11-15T00:40:59;12.50;;;7.82;;
31424;SDS011;18054;51.572;7.372;2022-11-15T00:43:52;12.70;;;7.30;;
31424;SDS011;18054;51.572;7.372;2022-11-15T00:46:39;16.33;;;7.80;;
31424;SDS011;18054;51.572;7.372;2022-11-15T00:49:26;14.40;;;7.20;;
31424;SDS011;18054;51.572;7.372;2022-11-15T00:52:12;17.65;;;7.80;;
31424;SDS011;18054;51.572;7.372;2022-11-15T00:54:58;14.63;;;8.15;;
31424;SDS011;18054;51.572;7.372;2022-11-15T00:57:45;13.98;;;7.65;;
31424;SDS011;18054;51.572;7.372;2022-11-15T01:00:31;16.33;;;7.47;;
31424;SDS011;18054;51.572;7.372;2022-11-15T01:03:18;19.30;;;8.50;;
31424;SDS011;18054;51.572;7.372;2022-11-15T01:06:05;17.35;;;8.32;;
31424;SDS011;18054;51.572;7.372;2022-11-15T01:08:52;11.60;;;6.90;;
31424;SDS011;18054;51.572;7.372;2022-11-15T01:11:38;16.27;;;6.82;;
31424;SDS011;18054;51.572;7.372;2022-11-15T01:14:24;15.25;;;7.07;;
31424;SDS011;18054;51.572;7.372;2022-11-15T01:17:10;14.50;;;7.28;;
31424;SDS011;18054;51.572;7.372;2022-11-15T01:19:56;13.43;;;6.57;;
31424;SDS011;18054;51.572;7.372;2022-11-15T01:22:43;11.18;;;6.88;;
31424;SDS011;18054;51.572;7.372;2022-11-15T01:25:29;20.02;;;6.65;;
31424;SDS011;18054;51.572;7.372;2022-11-15T01:28:15;13.23;;;6.63;;
31424;SDS011;18054;51.572;7.372;2022-11-15T01:31:02;14.80;;;6.68;;
31424;SDS011;18054;51.572;7.372;2022-11-15T01:33:48;13.00;;;6.65;;
31424;SDS011;18054;51.572;7.372;2022-11-15T01:36:34;14.70;;;7.63;;
31424;SDS011;18054;51.572;7.372;2022-11-15T01:39:21;19.33;;;7.03;;
31424;SDS011;18054;51.572;7.372;2022-11-15T01:42:09;16.98;;;6.68;;
31424;SDS011;18054;51.572;7.372;2022-11-15T01:44:57;14.82;;;7.53;;
31424;SDS011;18054;51.572;7.372;2022-11-15T01:47:44;23.83;;;8.90;;
31424;SDS011;18054;51.572;7.372;2022-11-15T01:50:31;18.02;;;7.22;;
31424;SDS011;18054;51.572;7.372;2022-11-15T01:53:19;17.70;;;7.13;;
31424;SDS011;18054;51.572;7.372;2022-11-15T01:56:07;15.55;;;6.90;;
31424;SDS011;18054;51.572;7.372;2022-11-15T01:58:55;14.07;;;6.40;;
31424;SDS011;18054;51.572;7.372;2022-11-15T02:01:42;11.95;;;6.45;;
31424;SDS011;18054;51.572;7.372;2022-11-15T02:04:28;18.13;;;7.47;;
31424;SDS011;18054;51.572;7.372;2022-11-15T02:07:16;18.73;;;7.35;;
31424;SDS011;18054;51.572;7.372;2022-11-15T02:10:04;17.27;;;8.00;;
31424;SDS011;18054;51.572;7.372;2022-11-15T02:12:53;15.00;;;8.02;;
31424;SDS011;18054;51.572;7.372;2022-11-15T02:15:40;18.25;;;7.97;;
31424;SDS011;18054;51.572;7.372;2022-11-15T02:18:31;25.08;;;8.07;;
31424;SDS011;18054;51.572;7.372;2022-11-15T02:21:20;17.95;;;8.30;;
31424;SDS011;18054;51.572;7.372;2022-11-15T02:27:37;12.30;;;6.72;;
31424;SDS011;18054;51.572;7.372;2022-11-15T02:33:17;14.13;;;6.87;;
31424;SDS011;18054;51.572;7.372;2022-11-15T02:36:09;15.40;;;6.93;;
31424;SDS011;18054;51.572;7.372;2022-11-15T02:38:58;15.23;;;7.03;;
31424;SDS011;18054;51.572;7.372;2022-11-15T02:41:46;21.30;;;8.38;;
31424;SDS011;18054;51.572;7.372;2022-11-15T02:47:18;13.52;;;6.30;;
31424;SDS011;18054;51.572;7.372;2022-11-15T02:50:07;15.38;;;6.85;;
31424;SDS011;18054;51.572;7.372;2022-11-15T02:52:54;12.65;;;6.50;;
31424;SDS011;18054;51.572;7.372;2022-11-15T02:55:41;12.57;;;6.33;;
31424;SDS011;18054;51.572;7.372;2022-11-15T02:58:35;21.02;;;6.65;;
31424;SDS011;18054;51.572;7.372;2022-11-15T03:01:28;12.10;;;5.90;;
31424;SDS011;18054;51.572;7.372;2022-11-15T03:04:21;13.30;;;6.65;;
31424;SDS011;18054;51.572;7.372;2022-11-15T03:07:13;17.92;;;7.68;;
31424;SDS011;18054;51.572;7.372;2022-11-15T03:10:02;17.42;;;6.80;;
31424;SDS011;18054;51.572;7.372;2022-11-15T03:12:51;15.10;;;6.57;;
31424;SDS011;18054;51.572;7.372;2022-11-15T03:15:41;11.73;;;6.70;;
31424;SDS011;18054;51.572;7.372;2022-11-15T03:18:30;12.38;;;6.45;;
31424;SDS011;18054;51.572;7.372;2022-11-15T03:21:18;14.82;;;6.68;;
31424;SDS011;18054;51.572;7.372;2022-11-15T03:24:07;15.15;;;6.90;;
31424;SDS011;18054;51.572;7.372;2022-11-15T03:26:53;14.27;;;7.15;;
31424;SDS011;18054;51.572;7.372;2022-11-15T03:29:41;12.85;;;6.88;;
31424;SDS011;18054;51.572;7.372;2022-11-15T03:32:29;14.05;;;7.10;;
31424;SDS011;18054;51.572;7.372;2022-11-15T03:35:17;20.60;;;7.45;;
31424;SDS011;18054;51.572;7.372;2022-11-15T03:38:05;17.90;;;7.47;;
31424;SDS011;18054;51.572;7.372;2022-11-15T03:40:54;14.13;;;7.47;;
31424;SDS011;18054;51.572;7.372;2022-11-15T03:43:43;16.88;;;7.72;;
31424;SDS011;18054;51.572;7.372;2022-11-15T03:46:31;15.90;;;7.63;;
31424;SDS011;18054;51.572;7.372;2022-11-15T03:49:19;19.13;;;9.23;;
31424;SDS011;18054;51.572;7.372;2022-11-15T03:52:08;11.60;;;7.03;;
31424;SDS011;18054;51.572;7.372;2022-11-15T03:54:57;12.40;;;7.30;;
31424;SDS011;18054;51.572;7.372;2022-11-15T03:57:48;18.02;;;7.63;;
31424;SDS011;18054;51.572;7.372;2022-11-15T04:00:34;18.52;;;8.65;;
31424;SDS011;18054;51.572;7.372;2022-11-15T04:03:20;13.73;;;7.07;;
31424;SDS011;18054;51.572;7.372;2022-11-15T04:06:07;15.07;;;7.20;;
31424;SDS011;18054;51.572;7.372;2022-11-15T04:08:53;18.55;;;7.78;;
31424;SDS011;18054;51.572;7.372;2022-11-15T04:11:38;11.63;;;6.90;;
31424;SDS011;18054;51.572;7.372;2022-11-15T04:14:26;13.95;;;6.25;;
31424;SDS011;18054;51.572;7.372;2022-11-15T04:17:12;15.23;;;6.90;;
31424;SDS011;18054;51.572;7.372;2022-11-15T04:19:58;13.68;;;7.40;;
31424;SDS011;18054;51.572;7.372;2022-11-15T04:23:09;20.13;;;8.82;;
31424;SDS011;18054;51.572;7.372;2022-11-15T04:26:14;12.63;;;6.97;;
31424;SDS011;18054;51.572;7.372;2022-11-15T04:29:01;11.85;;;6.25;;
31424;SDS011;18054;51.572;7.372;2022-11-15T04:32:06;11.27;;;6.15;;
31424;SDS011;18054;51.572;7.372;2022-11-15T04:34:53;10.63;;;6.50;;
31424;SDS011;18054;51.572;7.372;2022-11-15T04:37:39;11.10;;;6.68;;
31424;SDS011;18054;51.572;7.372;2022-11-15T04:40:32;14.45;;;8.00;;
31424;SDS011;18054;51.572;7.372;2022-11-15T04:43:18;12.32;;;6.38;;
31424;SDS011;18054;51.572;7.372;2022-11-15T04:46:04;14.90;;;6.93;;
31424;SDS011;18054;51.572;7.372;2022-11-15T04:48:51;15.93;;;8.35;;
31424;SDS011;18054;51.572;7.372;2022-11-15T04:51:43;14.82;;;6.22;;
31424;SDS011;18054;51.572;7.372;2022-11-15T04:54:29;13.73;;;6.25;;
31424;SDS011;18054;51.572;7.372;2022-11-15T04:57:15;12.55;;;5.90;;
31424;SDS011;18054;51.572;7.372;2022-11-15T05:00:02;12.23;;;6.55;;
31424;SDS011;18054;51.572;7.372;2022-11-15T05:02:48;12.15;;;6.15;;
31424;SDS011;18054;51.572;7.372;2022-11-15T05:05:53;9.90;;;6.13;;
31424;SDS011;18054;51.572;7.372;2022-11-15T05:08:39;10.73;;;6.13;;
31424;SDS011;18054;51.572;7.372;2022-11-15T05:11:25;13.95;;;6.20;;
31424;SDS011;18054;51.572;7.372;2022-11-15T05:14:12;10.63;;;6.03;;
31424;SDS011;18054;51.572;7.372;2022-11-15T05:16:58;13.65;;;6.68;;
31424;SDS011;18054;51.572;7.372;2022-11-15T05:19:44;13.55;;;7.53;;
31424;SDS011;18054;51.572;7.372;2022-11-15T05:22:32;9.75;;;6.13;;
31424;SDS011;18054;51.572;7.372;2022-11-15T05:25:18;12.68;;;7.68;;
31424;SDS011;18054;51.572;7.372;2022-11-15T05:28:04;9.23;;;6.30;;
31424;SDS011;18054;51.572;7.372;2022-11-15T05:30:50;12.85;;;6.88;;
31424;SDS011;18054;51.572;7.372;2022-11-15T05:33:36;11.23;;;6.00;;
31424;SDS011;18054;51.572;7.372;2022-11-15T05:36:25;13.10;;;6.60;;
31424;SDS011;18054;51.572;7.372;2022-11-15T05:39:15;11.07;;;5.70;;
31424;SDS011;18054;51.572;7.372;2022-11-15T05:42:01;14.48;;;6.80;;
31424;SDS011;18054;51.572;7.372;2022-11-15T05:47:34;12.07;;;6.60;;
31424;SDS011;18054;51.572;7.372;2022-11-15T05:50:22;15.60;;;9.38;;
31424;SDS011;18054;51.572;7.372;2022-11-15T05:53:09;18.30;;;10.40;;
31424;SDS011;18054;51.572;7.372;2022-11-15T05:55:57;11.27;;;7.43;;
31424;SDS011;18054;51.572;7.372;2022-11-15T05:58:43;10.10;;;6.10;;
31424;SDS011;18054;51.572;7.372;2022-11-15T06:01:29;12.40;;;5.97;;
31424;SDS011;18054;51.572;7.372;2022-11-15T06:04:15;10.75;;;5.88;;
31424;SDS011;18054;51.572;7.372;2022-11-15T06:07:01;14.43;;;6.35;;
31424;SDS011;18054;51.572;7.372;2022-11-15T06:09:47;17.17;;;6.30;;
31424;SDS011;18054;51.572;7.372;2022-11-15T06:12:35;10.20;;;5.72;;
31424;SDS011;18054;51.572;7.372;2022-11-15T06:15:21;9.82;;;5.63;;
31424;SDS011;18054;51.572;7.372;2022-11-15T06:18:07;7.32;;;5.40;;
31424;SDS011;18054;51.572;7.372;2022-11-15T06:20:53;13.27;;;5.63;;
31424;SDS011;18054;51.572;7.372;2022-11-15T06:23:40;15.57;;;5.18;;
31424;SDS011;18054;51.572;7.372;2022-11-15T06:26:26;12.57;;;6.00;;
31424;SDS011;18054;51.572;7.372;2022-11-15T06:29:13;11.18;;;6.45;;
31424;SDS011;18054;51.572;7.372;2022-11-15T06:31:59;9.48;;;6.85;;
31424;SDS011;18054;51.572;7.372;2022-11-15T06:34:45;15.40;;;8.50;;
31424;SDS011;18054;51.572;7.372;2022-11-15T06:37:33;15.30;;;7.15;;
31424;SDS011;18054;51.572;7.372;2022-11-15T06:40:18;11.43;;;7.68;;
31424;SDS011;18054;51.572;7.372;2022-11-15T06:43:04;13.27;;;7.85;;
31424;SDS011;18054;51.572;7.372;2022-11-15T06:45:52;19.58;;;8.88;;
31424;SDS011;18054;51.572;7.372;2022-11-15T06:48:38;9.70;;;6.15;;
31424;SDS011;18054;51.572;7.372;2022-11-15T06:51:24;9.45;;;5.20;;
31424;SDS011;18054;51.572;7.372;2022-11-15T06:54:10;11.13;;;4.97;;
31424;SDS011;18054;51.572;7.372;2022-11-15T06:56:56;10.90;;;4.55;;
31424;SDS011;18054;51.572;7.372;2022-11-15T06:59:42;8.85;;;4.93;;
31424;SDS011;18054;51.572;7.372;2022-11-15T07:02:30;9.75;;;4.97;;
31424;SDS011;18054;51.572;7.372;2022-11-15T07:05:16;7.25;;;4.32;;
31424;SDS011;18054;51.572;7.372;2022-11-15T07:08:02;7.13;;;4.15;;
31424;SDS011;18054;51.572;7.372;2022-11-15T07:10:48;7.65;;;4.03;;
31424;SDS011;18054;51.572;7.372;2022-11-15T07:13:35;6.38;;;4.00;;
31424;SDS011;18054;51.572;7.372;2022-11-15T07:16:22;6.53;;;3.20;;
31424;SDS011;18054;51.572;7.372;2022-11-15T07:19:09;6.82;;;3.42;;
31424;SDS011;18054;51.572;7.372;2022-11-15T07:21:55;7.00;;;3.35;;
31424;SDS011;18054;51.572;7.372;2022-11-15T07:24:42;7.40;;;3.17;;
31424;SDS011;18054;51.572;7.372;2022-11-15T07:27:28;7.72;;;3.60;;
31424;SDS011;18054;51.572;7.372;2022-11-15T07:30:14;6.35;;;2.95;;
31424;SDS011;18054;51.572;7.372;2022-11-15T07:33:00;6.15;;;2.70;;
31424;SDS011;18054;51.572;7.372;2022-11-15T07:35:48;3.25;;;2.15;;
31424;SDS011;18054;51.572;7.372;2022-11-15T07:38:34;8.88;;;3.40;;
31424;SDS011;18054;51.572;7.372;2022-11-15T07:41:26;5.35;;;3.00;;
31424;SDS011;18054;51.572;7.372;2022-11-15T07:44:12;11.85;;;2.70;;
31424;SDS011;18054;51.572;7.372;2022-11-15T07:46:58;5.00;;;3.10;;
31424;SDS011;18054;51.572;7.372;2022-11-15T07:49:44;8.00;;;2.90;;
31424;SDS011;18054;51.572;7.372;2022-11-15T07:52:33;7.80;;;2.95;;
31424;SDS011;18054;51.572;7.372;2022-11-15T07:55:19;7.45;;;2.67;;
31424;SDS011;18054;51.572;7.372;2022-11-15T07:58:06;11.48;;;4.95;;
31424;SDS011;18054;51.572;7.372;2022-11-15T08:03:38;10.73;;;5.80;;
31424;SDS011;18054;51.572;7.372;2022-11-15T08:06:24;7.95;;;3.63;;
31424;SDS011;18054;51.572;7.372;2022-11-15T08:09:12;7.60;;;3.50;;
31424;SDS011;18054;51.572;7.372;2022-11-15T08:11:58;7.22;;;3.08;;
31424;SDS011;18054;51.572;7.372;2022-11-15T08:14:44;7.50;;;2.35;;
31424;SDS011;18054;51.572;7.372;2022-11-15T08:17:30;4.50;;;2.28;;
31424;SDS011;18054;51.572;7.372;2022-11-15T08:20:17;11.18;;;2.63;;
31424;SDS011;18054;51.572;7.372;2022-11-15T08:23:04;4.75;;;2.22;;
31424;SDS011;18054;51.572;7.372;2022-11-15T08:25:51;6.68;;;2.70;;
31424;SDS011;18054;51.572;7.372;2022-11-15T08:28:39;4.30;;;2.40;;
31424;SDS011;18054;51.572;7.372;2022-11-15T08:31:26;6.57;;;2.17;;
31424;SDS011;18054;51.572;7.372;2022-11-15T08:34:12;6.18;;;2.40;;
31424;SDS011;18054;51.572;7.372;2022-11-15T08:36:58;5.47;;;2.63;;
31424;SDS011;18054;51.572;7.372;2022-11-15T08:39:44;6.00;;;2.50;;
31424;SDS011;18054;51.572;7.372;2022-11-15T08:42:33;8.60;;;2.78;;
31424;SDS011;18054;51.572;7.372;2022-11-15T08:45:19;5.05;;;2.10;;
31424;SDS011;18054;51.572;7.372;2022-11-15T08:48:05;6.13;;;3.22;;
31424;SDS011;18054;51.572;7.372;2022-11-15T08:50:52;7.13;;;2.50;;
31424;SDS011;18054;51.572;7.372;2022-11-15T08:53:39;6.78;;;2.92;;
31424;SDS011;18054;51.572;7.372;2022-11-15T08:56:25;7.57;;;2.60;;
31424;SDS011;18054;51.572;7.372;2022-11-15T08:59:12;7.65;;;2.80;;
31424;SDS011;18054;51.572;7.372;2022-11-15T09:01:58;8.32;;;2.15;;
31424;SDS011;18054;51.572;7.372;2022-11-15T09:04:44;6.18;;;2.58;;
31424;SDS011;18054;51.572;7.372;2022-11-15T09:07:30;6.15;;;1.95;;
31424;SDS011;18054;51.572;7.372;2022-11-15T09:10:17;5.30;;;2.25;;
31424;SDS011;18054;51.572;7.372;2022-11-15T09:13:03;16.73;;;2.55;;
31424;SDS011;18054;51.572;7.372;2022-11-15T09:15:50;5.13;;;2.05;;
31424;SDS011;18054;51.572;7.372;2022-11-15T09:18:36;4.90;;;2.00;;
31424;SDS011;18054;51.572;7.372;2022-11-15T09:21:22;7.88;;;1.77;;
31424;SDS011;18054;51.572;7.372;2022-11-15T09:24:08;4.70;;;1.80;;
31424;SDS011;18054;51.572;7.372;2022-11-15T09:26:54;5.43;;;1.90;;
31424;SDS011;18054;51.572;7.372;2022-11-15T09:29:40;4.90;;;1.77;;
31424;SDS011;18054;51.572;7.372;2022-11-15T09:32:29;4.28;;;2.35;;
31424;SDS011;18054;51.572;7.372;2022-11-15T09:35:23;5.93;;;1.83;;
31424;SDS011;18054;51.572;7.372;2022-11-15T09:38:09;4.05;;;1.77;;
31424;SDS011;18054;51.572;7.372;2022-11-15T09:40:58;3.13;;;1.35;;
31424;SDS011;18054;51.572;7.372;2022-11-15T09:43:54;3.40;;;1.80;;
31424;SDS011;18054;51.572;7.372;2022-11-15T09:46:45;3.28;;;1.55;;
31424;SDS011;18054;51.572;7.372;2022-11-15T09:49:42;3.65;;;1.65;;
31424;SDS011;18054;51.572;7.372;2022-11-15T09:52:16;5.38;;;1.75;;
31424;SDS011;18054;51.572;7.372;2022-11-15T09:54:46;5.47;;;1.60;;
31424;SDS011;18054;51.572;7.372;2022-11-15T09:57:21;5.30;;;1.90;;
31424;SDS011;18054;51.572;7.372;2022-11-15T09:59:52;2.50;;;1.02;;
31424;SDS011;18054;51.572;7.372;2022-11-15T10:02:30;4.22;;;1.27;;
31424;SDS011;18054;51.572;7.372;2022-11-15T10:05:01;4.63;;;1.50;;
31424;SDS011;18054;51.572;7.372;2022-11-15T10:07:31;6.30;;;1.30;;
31424;SDS011;18054;51.572;7.372;2022-11-15T10:10:02;3.17;;;1.27;;
31424;SDS011;18054;51.572;7.372;2022-11-15T10:12:31;5.55;;;1.63;;
31424;SDS011;18054;51.572;7.372;2022-11-15T10:15:00;8.63;;;1.40;;
31424;SDS011;18054;51.572;7.372;2022-11-15T10:17:36;3.58;;;1.60;;
31424;SDS011;18054;51.572;7.372;2022-11-15T10:20:12;4.75;;;1.48;;
31424;SDS011;18054;51.572;7.372;2022-11-15T10:22:44;5.22;;;1.25;;
31424;SDS011;18054;51.572;7.372;2022-11-15T10:25:16;2.13;;;0.90;;
31424;SDS011;18054;51.572;7.372;2022-11-15T10:27:46;8.93;;;1.73;;
31424;SDS011;18054;51.572;7.372;2022-11-15T10:30:15;4.20;;;1.42;;
31424;SDS011;18054;51.572;7.372;2022-11-15T10:32:44;4.45;;;1.13;;
31424;SDS011;18054;51.572;7.372;2022-11-15T10:35:26;3.40;;;1.33;;
31424;SDS011;18054;51.572;7.372;2022-11-15T10:38:02;6.03;;;0.93;;
31424;SDS011;18054;51.572;7.372;2022-11-15T10:40:31;8.80;;;1.70;;
31424;SDS011;18054;51.572;7.372;2022-11-15T10:43:04;4.63;;;1.13;;
31424;SDS011;18054;51.572;7.372;2022-11-15T10:45:32;3.08;;;1.20;;
31424;SDS011;18054;51.572;7.372;2022-11-15T10:50:53;14.45;;;1.98;;
31424;SDS011;18054;51.572;7.372;2022-11-15T10:53:27;4.10;;;1.40;;
31424;SDS011;18054;51.572;7.372;2022-11-15T10:55:57;3.75;;;1.38;;
31424;SDS011;18054;51.572;7.372;2022-11-15T10:58:30;6.53;;;1.83;;
31424;SDS011;18054;51.572;7.372;2022-11-15T11:01:08;4.95;;;1.60;;
31424;SDS011;18054;51.572;7.372;2022-11-15T11:03:36;3.90;;;1.10;;
31424;SDS011;18054;51.572;7.372;2022-11-15T11:06:06;2.40;;;0.93;;
31424;SDS011;18054;51.572;7.372;2022-11-15T11:08:34;3.63;;;1.02;;
31424;SDS011;18054;51.572;7.372;2022-11-15T11:11:02;4.82;;;1.33;;
31424;SDS011;18054;51.572;7.372;2022-11-15T11:13:32;6.07;;;1.60;;
31424;SDS011;18054;51.572;7.372;2022-11-15T11:16:05;3.15;;;1.40;;
31424;SDS011;18054;51.572;7.372;2022-11-15T11:18:36;3.80;;;1.00;;
31424;SDS011;18054;51.572;7.372;2022-11-15T11:21:08;4.70;;;1.02;;
31424;SDS011;18054;51.572;7.372;2022-11-15T11:23:41;3.17;;;1.00;;
31424;SDS011;18054;51.572;7.372;2022-11-15T11:26:15;3.13;;;0.82;;
31424;SDS011;18054;51.572;7.372;2022-11-15T11:28:48;6.53;;;1.23;;
31424;SDS011;18054;51.572;7.372;2022-11-15T11:31:24;4.43;;;1.20;;
31424;SDS011;18054;51.572;7.372;2022-11-15T11:33:56;2.83;;;1.00;;
31424;SDS011;18054;51.572;7.372;2022-11-15T11:36:32;7.25;;;0.88;;
31424;SDS011;18054;51.572;7.372;2022-11-15T11:39:05;2.05;;;0.95;;
31424;SDS011;18054;51.572;7.372;2022-11-15T11:41:38;3.58;;;0.80;;
31424;SDS011;18054;51.572;7.372;2022-11-15T11:44:12;5.07;;;1.10;;
31424;SDS011;18054;51.572;7.372;2022-11-15T11:46:47;3.80;;;1.10;;
31424;SDS011;18054;51.572;7.372;2022-11-15T11:49:15;1.88;;;0.80;;
31424;SDS011;18054;51.572;7.372;2022-11-15T11:51:47;3.63;;;0.90;;
31424;SDS011;18054;51.572;7.372;2022-11-15T11:54:17;3.83;;;0.82;;
31424;SDS011;18054;51.572;7.372;2022-11-15T11:56:47;5.15;;;1.20;;
31424;SDS011;18054;51.572;7.372;2022-11-15T11:59:17;2.20;;;0.88;;
31424;SDS011;18054;51.572;7.372;2022-11-15T12:01:46;4.55;;;1.23;;
31424;SDS011;18054;51.572;7.372;2022-11-15T12:09:14;5.30;;;1.50;;
31424;SDS011;18054;51.572;7.372;2022-11-15T12:11:45;2.28;;;0.93;;
31424;SDS011;18054;51.572;7.372;2022-11-15T12:14:18;5.20;;;1.20;;
31424;SDS011;18054;51.572;7.372;2022-11-15T12:16:48;9.10;;;4.32;;
31424;SDS011;18054;51.572;7.372;2022-11-15T12:19:15;3.60;;;1.20;;
31424;SDS011;18054;51.572;7.372;2022-11-15T12:31:36;11.85;;;1.17;;
31424;SDS011;18054;51.572;7.372;2022-11-15T12:34:13;3.88;;;1.20;;
31424;SDS011;18054;51.572;7.372;2022-11-15T12:36:40;4.72;;;0.90;;
31424;SDS011;18054;51.572;7.372;2022-11-15T12:39:09;3.40;;;0.80;;
31424;SDS011;18054;51.572;7.372;2022-11-15T12:41:38;4.78;;;0.88;;
31424;SDS011;18054;51.572;7.372;2022-11-15T12:44:09;4.30;;;1.00;;
31424;SDS011;18054;51.572;7.372;2022-11-15T12:49:44;3.40;;;0.65;;
31424;SDS011;18054;51.572;7.372;2022-11-15T12:52:12;4.18;;;0.80;;
31424;SDS011;18054;51.572;7.372;2022-11-15T12:54:49;3.85;;;0.95;;
31424;SDS011;18054;51.572;7.372;2022-11-15T12:57:33;2.53;;;0.80;;
31424;SDS011;18054;51.572;7.372;2022-11-15T13:00:04;2.22;;;0.93;;
31424;SDS011;18054;51.572;7.372;2022-11-15T13:02:33;2.80;;;0.70;;
31424;SDS011;18054;51.572;7.372;2022-11-15T13:08:12;3.53;;;1.27;;
31424;SDS011;18054;51.572;7.372;2022-11-15T13:11:08;5.93;;;1.40;;
31424;SDS011;18054;51.572;7.372;2022-11-15T13:13:55;4.85;;;1.25;;
31424;SDS011;18054;51.572;7.372;2022-11-15T13:16:23;7.68;;;1.50;;
31424;SDS011;18054;51.572;7.372;2022-11-15T13:18:53;5.38;;;1.20;;
31424;SDS011;18054;51.572;7.372;2022-11-15T13:21:23;5.05;;;1.00;;
31424;SDS011;18054;51.572;7.372;2022-11-15T13:24:10;5.43;;;1.27;;
31424;SDS011;18054;51.572;7.372;2022-11-15T13:26:38;5.80;;;1.35;;
31424;SDS011;18054;51.572;7.372;2022-11-15T13:29:12;6.55;;;1.42;;
31424;SDS011;18054;51.572;7.372;2022-11-15T13:31:42;4.35;;;1.05;;
31424;SDS011;18054;51.572;7.372;2022-11-15T13:34:16;5.18;;;0.98;;
31424;SDS011;18054;51.572;7.372;2022-11-15T13:37:08;4.70;;;0.80;;
31424;SDS011;18054;51.572;7.372;2022-11-15T13:39:36;5.20;;;1.13;;
31424;SDS011;18054;51.572;7.372;2022-11-15T13:44:32;3.85;;;0.85;;
31424;SDS011;18054;51.572;7.372;2022-11-15T13:47:00;4.40;;;0.80;;
31424;SDS011;18054;51.572;7.372;2022-11-15T13:49:29;6.03;;;1.17;;
31424;SDS011;18054;51.572;7.372;2022-11-15T13:51:56;4.07;;;1.00;;
31424;SDS011;18054;51.572;7.372;2022-11-15T13:54:26;5.95;;;1.30;;
31424;SDS011;18054;51.572;7.372;2022-11-15T13:56:55;5.38;;;1.25;;
31424;SDS011;18054;51.572;7.372;2022-11-15T13:59:24;5.80;;;1.50;;
31424;SDS011;18054;51.572;7.372;2022-11-15T14:01:52;7.00;;;1.90;;
31424;SDS011;18054;51.572;7.372;2022-11-15T14:04:20;3.28;;;1.45;;
31424;SDS011;18054;51.572;7.372;2022-11-15T14:06:50;6.78;;;2.00;;
31424;SDS011;18054;51.572;7.372;2022-11-15T14:09:33;5.32;;;1.20;;
31424;SDS011;18054;51.572;7.372;2022-11-15T14:12:01;8.32;;;1.55;;
31424;SDS011;18054;51.572;7.372;2022-11-15T14:14:29;5.28;;;1.05;;
31424;SDS011;18054;51.572;7.372;2022-11-15T14:16:57;6.82;;;1.20;;
31424;SDS011;18054;51.572;7.372;2022-11-15T14:19:35;7.15;;;1.33;;
31424;SDS011;18054;51.572;7.372;2022-11-15T14:22:13;4.40;;;1.20;;
31424;SDS011;18054;51.572;7.372;2022-11-15T14:24:43;8.38;;;1.15;;
31424;SDS011;18054;51.572;7.372;2022-11-15T14:27:21;2.78;;;0.95;;
31424;SDS011;18054;51.572;7.372;2022-11-15T14:29:49;5.05;;;1.10;;
31424;SDS011;18054;51.572;7.372;2022-11-15T14:32:17;5.30;;;1.60;;
31424;SDS011;18054;51.572;7.372;2022-11-15T14:34:45;7.30;;;1.17;;
31424;SDS011;18054;51.572;7.372;2022-11-15T14:37:17;7.38;;;1.92;;
31424;SDS011;18054;51.572;7.372;2022-11-15T14:39:47;4.28;;;1.38;;
31424;SDS011;18054;51.572;7.372;2022-11-15T14:42:14;5.43;;;1.40;;
31424;SDS011;18054;51.572;7.372;2022-11-15T14:44:42;6.60;;;1.75;;
31424;SDS011;18054;51.572;7.372;2022-11-15T14:47:11;3.83;;;1.20;;
31424;SDS011;18054;51.572;7.372;2022-11-15T14:49:39;8.55;;;1.52;;
31424;SDS011;18054;51.572;7.372;2022-11-15T14:54:59;4.75;;;1.67;;
31424;SDS011;18054;51.572;7.372;2022-11-15T14:57:27;4.28;;;1.42;;
31424;SDS011;18054;51.572;7.372;2022-11-15T14:59:54;4.85;;;1.38;;
31424;SDS011;18054;51.572;7.372;2022-11-15T15:02:23;3.20;;;1.10;;
31424;SDS011;18054;51.572;7.372;2022-11-15T15:04:50;8.18;;;1.95;;
31424;SDS011;18054;51.572;7.372;2022-11-15T15:07:18;4.57;;;1.35;;
31424;SDS011;18054;51.572;7.372;2022-11-15T15:09:45;10.10;;;1.45;;
31424;SDS011;18054;51.572;7.372;2022-11-15T15:12:19;5.18;;;1.42;;
31424;SDS011;18054;51.572;7.372;2022-11-15T15:14:47;7.20;;;2.08;;
31424;SDS011;18054;51.572;7.372;2022-11-15T15:17:15;8.05;;;2.10;;
31424;SDS011;18054;51.572;7.372;2022-11-15T15:19:42;5.43;;;2.47;;
31424;SDS011;18054;51.572;7.372;2022-11-15T15:22:11;7.93;;;2.90;;
31424;SDS011;18054;51.572;7.372;2022-11-15T15:24:40;5.57;;;2.05;;
31424;SDS011;18054;51.572;7.372;2022-11-15T15:27:08;7.00;;;2.70;;
31424;SDS011;18054;51.572;7.372;2022-11-15T15:29:37;8.57;;;2.55;;
31424;SDS011;18054;51.572;7.372;2022-11-15T15:32:05;6.22;;;1.88;;
31424;SDS011;18054;51.572;7.372;2022-11-15T15:34:32;5.20;;;2.03;;
31424;SDS011;18054;51.572;7.372;2022-11-15T15:37:06;13.90;;;2.50;;
31424;SDS011;18054;51.572;7.372;2022-11-15T15:39:34;6.43;;;1.83;;
31424;SDS011;18054;51.572;7.372;2022-11-15T15:42:01;4.68;;;1.60;;
31424;SDS011;18054;51.572;7.372;2022-11-15T15:44:29;6.55;;;1.80;;
31424;SDS011;18054;51.572;7.372;2022-11-15T15:46:58;6.45;;;2.22;;
31424;SDS011;18054;51.572;7.372;2022-11-15T15:49:26;6.18;;;2.63;;
31424;SDS011;18054;51.572;7.372;2022-11-15T15:51:53;9.88;;;3.03;;
31424;SDS011;18054;51.572;7.372;2022-11-15T15:54:20;11.18;;;2.90;;
31424;SDS011;18054;51.572;7.372;2022-11-15T15:56:48;6.30;;;2.60;;
31424;SDS011;18054;51.572;7.372;2022-11-15T15:59:21;12.98;;;3.63;;
31424;SDS011;18054;51.572;7.372;2022-11-15T16:01:48;14.60;;;3.90;;
31424;SDS011;18054;51.572;7.372;2022-11-15T16:04:17;10.57;;;3.33;;
31424;SDS011;18054;51.572;7.372;2022-11-15T16:06:44;12.40;;;3.58;;
31424;SDS011;18054;51.572;7.372;2022-11-15T16:09:12;12.15;;;3.20;;
31424;SDS011;18054;51.572;7.372;2022-11-15T16:11:43;13.55;;;3.38;;
31424;SDS011;18054;51.572;7.372;2022-11-15T16:14:11;12.82;;;2.85;;
31424;SDS011;18054;51.572;7.372;2022-11-15T16:16:38;9.88;;;2.35;;
31424;SDS011;18054;51.572;7.372;2022-11-15T16:19:05;8.10;;;3.13;;
31424;SDS011;18054;51.572;7.372;2022-11-15T16:21:34;9.27;;;3.38;;
31424;SDS011;18054;51.572;7.372;2022-11-15T16:24:02;9.23;;;3.40;;
31424;SDS011;18054;51.572;7.372;2022-11-15T16:26:30;10.75;;;3.05;;
31424;SDS011;18054;51.572;7.372;2022-11-15T16:28:59;11.15;;;3.33;;
31424;SDS011;18054;51.572;7.372;2022-11-15T16:31:26;13.05;;;3.70;;
31424;SDS011;18054;51.572;7.372;2022-11-15T16:33:54;13.02;;;2.80;;
31424;SDS011;18054;51.572;7.372;2022-11-15T16:36:21;10.07;;;2.92;;
31424;SDS011;18054;51.572;7.372;2022-11-15T16:38:57;9.13;;;2.65;;
31424;SDS011;18054;51.572;7.372;2022-11-15T16:41:24;8.63;;;3.63;;
31424;SDS011;18054;51.572;7.372;2022-11-15T16:43:52;7.30;;;2.70;;
31424;SDS011;18054;51.572;7.372;2022-11-15T16:46:20;7.68;;;3.00;;